Time;durP1;ratioP1;P1;durP2;ratioP2;P2;SDS_P1;SDS_P2;PMS_P1;PMS_P2;Temp;Humidity;BMP_temperature;BMP_pressure;BME280_temperature;BME280_humidity;BME280_pressure;Samples;Min_cycle;Max_cycle;Signal;HPM_P1;HPM_P2
2023/05/27 00:00:28;;;;;;;10.50;3.22;;;;;;;;;;6244568;28;20046;-79
2023/05/27 00:03:29;;;;;;;13.05;3.40;;;;;;;;;;6244906;28;20052;-77
2023/05/27 00:06:31;;;;;;;13.23;3.58;;;;;;;;;;6255285;28;20048;-77
2023/05/27 00:09:33;;;;;;;10.52;3.17;;;;;;;;;;6252119;28;20044;-79
2023/05/27 00:12:35;;;;;;;8.63;3.25;;;;;;;;;;6245401;28;20049;-78
2023/05/27 00:15:40;;;;;;;10.43;3.45;;;;;;;;;;6247437;28;21157;-78
2023/05/27 00:18:42;;;;;;;9.65;3.55;;;;;;;;;;6243643;28;20049;-79
2023/05/27 00:21:44;;;;;;;8.75;2.92;;;;;;;;;;6245685;28;20065;-78
2023/05/27 00:24:45;;;;;;;11.75;3.10;;;;;;;;;;6244867;28;20489;-78
2023/05/27 00:27:47;;;;;;;8.82;2.97;;;;;;;;;;6236692;28;20143;-78
2023/05/27 00:30:50;;;;;;;8.38;2.90;;;;;;;;;;6258531;28;20068;-78
2023/05/27 00:33:52;;;;;;;10.68;2.92;;;;;;;;;;6252284;28;20493;-77
2023/05/27 00:36:53;;;;;;;12.98;3.83;;;;;;;;;;6233136;28;20033;-78
2023/05/27 00:39:55;;;;;;;10.13;3.40;;;;;;;;;;6248427;28;20049;-78
2023/05/27 00:42:57;;;;;;;10.68;3.38;;;;;;;;;;6255239;28;20060;-78
2023/05/27 00:45:59;;;;;;;12.90;3.90;;;;;;;;;;6256311;28;20529;-78
2023/05/27 00:49:00;;;;;;;11.43;2.90;;;;;;;;;;6256356;28;20134;-78
2023/05/27 00:52:02;;;;;;;11.52;3.95;;;;;;;;;;6266285;28;20053;-77
2023/05/27 00:55:06;;;;;;;7.30;3.47;;;;;;;;;;6252504;28;20053;-79
2023/05/27 00:58:09;;;;;;;12.30;3.30;;;;;;;;;;6251328;28;20061;-78
2023/05/27 01:01:11;;;;;;;10.50;4.32;;;;;;;;;;6250214;28;20037;-77
2023/05/27 01:04:13;;;;;;;7.32;3.40;;;;;;;;;;6249672;28;20074;-77
2023/05/27 01:07:21;;;;;;;9.73;3.60;;;;;;;;;;6262712;28;20041;-77
2023/05/27 01:10:31;;;;;;;7.85;3.38;;;;;;;;;;6250929;28;20041;-78
2023/05/27 01:13:39;;;;;;;9.68;3.60;;;;;;;;;;6251052;28;20056;-77
2023/05/27 01:16:43;;;;;;;9.50;3.35;;;;;;;;;;6246000;28;20064;-79
2023/05/27 01:19:45;;;;;;;9.15;3.10;;;;;;;;;;6247941;28;20045;-77
2023/05/27 01:22:52;;;;;;;8.00;4.00;;;;;;;;;;6247865;28;20041;-78
2023/05/27 01:25:54;;;;;;;8.40;3.72;;;;;;;;;;6252237;28;20713;-77
2023/05/27 01:28:56;;;;;;;7.38;2.75;;;;;;;;;;6249507;28;20040;-77
2023/05/27 01:32:12;;;;;;;12.80;4.10;;;;;;;;;;6252685;28;20151;-78
2023/05/27 01:35:27;;;;;;;11.32;3.50;;;;;;;;;;6247447;28;20056;-78
2023/05/27 01:38:32;;;;;;;12.68;3.83;;;;;;;;;;6263710;28;20739;-77
2023/05/27 01:41:35;;;;;;;9.32;3.70;;;;;;;;;;6251870;28;20045;-78
2023/05/27 01:44:37;;;;;;;9.25;3.65;;;;;;;;;;6250440;28;20048;-78
2023/05/27 01:47:43;;;;;;;10.82;4.00;;;;;;;;;;6248404;28;20049;-78
2023/05/27 01:50:45;;;;;;;12.60;4.35;;;;;;;;;;6248621;28;20048;-77
2023/05/27 01:53:46;;;;;;;11.45;4.28;;;;;;;;;;6239279;28;20083;-78
2023/05/27 01:56:48;;;;;;;12.90;4.13;;;;;;;;;;6251061;28;20045;-77
2023/05/27 01:59:50;;;;;;;9.82;3.90;;;;;;;;;;6253780;28;20444;-78
2023/05/27 02:02:52;;;;;;;10.15;4.18;;;;;;;;;;6256783;28;20040;-78
2023/05/27 02:05:54;;;;;;;11.77;3.85;;;;;;;;;;6248534;28;20048;-77
2023/05/27 02:08:56;;;;;;;13.15;5.15;;;;;;;;;;6246811;28;20045;-78
2023/05/27 02:11:58;;;;;;;10.35;3.72;;;;;;;;;;6252022;28;20041;-78
2023/05/27 02:15:00;;;;;;;9.65;3.38;;;;;;;;;;6251263;28;20065;-75
2023/05/27 02:18:02;;;;;;;6.32;3.38;;;;;;;;;;6264036;28;20048;-78
2023/05/27 02:21:06;;;;;;;15.77;4.10;;;;;;;;;;6249699;28;21695;-77
2023/05/27 02:24:07;;;;;;;12.23;3.90;;;;;;;;;;6256548;28;20052;-78
2023/05/27 02:27:09;;;;;;;8.07;3.75;;;;;;;;;;6260003;28;20044;-78
2023/05/27 02:30:12;;;;;;;9.60;4.63;;;;;;;;;;6274054;28;20037;-78
2023/05/27 02:33:13;;;;;;;7.97;4.30;;;;;;;;;;6253587;28;20041;-77
2023/05/27 02:36:16;;;;;;;9.02;4.07;;;;;;;;;;6262102;28;20056;-77
2023/05/27 02:39:18;;;;;;;9.93;3.78;;;;;;;;;;6271998;28;20526;-78
2023/05/27 02:42:20;;;;;;;11.20;3.92;;;;;;;;;;6255303;28;20049;-78
2023/05/27 02:45:22;;;;;;;8.52;3.70;;;;;;;;;;6252108;28;20075;-78
2023/05/27 02:48:24;;;;;;;11.57;4.22;;;;;;;;;;6246847;28;20163;-77
2023/05/27 02:51:28;;;;;;;;;;;;;;;;;;6256957;28;20052;-79
2023/05/27 02:54:30;;;;;;;10.02;3.45;;;;;;;;;;6254229;28;20497;-78
2023/05/27 02:57:31;;;;;;;13.07;4.07;;;;;;;;;;6252296;28;20946;-78
2023/05/27 03:00:34;;;;;;;7.18;3.50;;;;;;;;;;6251870;28;20041;-77
2023/05/27 03:03:36;;;;;;;12.10;3.70;;;;;;;;;;6251687;28;20090;-78
2023/05/27 03:06:38;;;;;;;13.77;4.50;;;;;;;;;;6256024;28;20041;-78
2023/05/27 03:09:39;;;;;;;10.18;4.53;;;;;;;;;;6239796;28;20045;-76
2023/05/27 03:12:41;;;;;;;11.07;4.55;;;;;;;;;;6251706;28;20052;-78
2023/05/27 03:15:43;;;;;;;12.52;4.38;;;;;;;;;;6245777;28;20054;-81
2023/05/27 03:18:45;;;;;;;10.55;4.15;;;;;;;;;;6257667;28;20045;-80
2023/05/27 03:21:48;;;;;;;13.73;4.85;;;;;;;;;;6279227;28;20048;-79
2023/05/27 03:24:53;;;;;;;9.35;3.65;;;;;;;;;;6262259;28;20092;-79
2023/05/27 03:27:55;;;;;;;13.45;4.32;;;;;;;;;;6256944;28;20159;-78
2023/05/27 03:30:57;;;;;;;8.90;3.83;;;;;;;;;;6255223;28;20033;-77
2023/05/27 03:34:11;;;;;;;9.65;3.72;;;;;;;;;;6247861;28;22709;-78
2023/05/27 03:37:14;;;;;;;;;;;;;;;;;;6254360;28;20056;-78
2023/05/27 03:40:42;;;;;;;13.02;4.03;;;;;;;;;;6249065;28;20492;-77
2023/05/27 03:43:44;;;;;;;15.95;4.20;;;;;;;;;;6252936;28;20155;-78
2023/05/27 03:46:47;;;;;;;;;;;;;;;;;;6271981;28;20046;-77
2023/05/27 03:49:49;;;;;;;12.50;4.20;;;;;;;;;;6255093;28;19925;-78
2023/05/27 03:52:52;;;;;;;;;;;;;;;;;;6273870;28;20045;-78
2023/05/27 03:55:55;;;;;;;12.98;4.32;;;;;;;;;;6254066;28;19931;-78
2023/05/27 03:58:57;;;;;;;12.45;5.93;;;;;;;;;;6251181;28;20046;-79
2023/05/27 04:01:59;;;;;;;15.10;6.53;;;;;;;;;;6248338;28;20060;-78
2023/05/27 04:05:01;;;;;;;13.27;5.38;;;;;;;;;;6254804;28;20056;-78
2023/05/27 04:08:03;;;;;;;12.75;4.97;;;;;;;;;;6245931;28;20049;-77
2023/05/27 04:11:05;;;;;;;13.57;4.80;;;;;;;;;;6250659;28;20529;-78
2023/05/27 04:14:07;;;;;;;13.13;4.20;;;;;;;;;;6249225;28;20045;-77
2023/05/27 04:17:13;;;;;;;11.95;4.38;;;;;;;;;;6252673;28;20051;-78
2023/05/27 04:20:16;;;;;;;11.98;4.85;;;;;;;;;;6252096;28;20076;-77
2023/05/27 04:23:23;;;;;;;10.38;4.10;;;;;;;;;;6247653;28;20055;-78
2023/05/27 04:26:26;;;;;;;12.48;4.55;;;;;;;;;;6260382;28;20051;-77
2023/05/27 04:29:28;;;;;;;9.98;4.20;;;;;;;;;;6254131;28;20049;-78
2023/05/27 04:32:37;;;;;;;10.43;4.90;;;;;;;;;;6254211;28;20447;-78
2023/05/27 04:35:40;;;;;;;12.32;5.00;;;;;;;;;;6249865;28;20186;-78
2023/05/27 04:38:45;;;;;;;14.50;4.68;;;;;;;;;;6264772;28;20053;-78
2023/05/27 04:41:46;;;;;;;11.77;5.18;;;;;;;;;;6253691;28;20050;-78
2023/05/27 04:44:54;;;;;;;10.30;4.80;;;;;;;;;;6233444;28;20048;-78
2023/05/27 04:47:57;;;;;;;14.05;5.03;;;;;;;;;;6253190;28;20156;-78
2023/05/27 04:51:00;;;;;;;14.18;5.28;;;;;;;;;;6249465;28;20044;-77
2023/05/27 04:54:02;;;;;;;15.85;5.53;;;;;;;;;;6251855;28;20048;-79
2023/05/27 04:57:04;;;;;;;11.25;5.18;;;;;;;;;;6253094;28;20053;-77
2023/05/27 05:03:20;;;;;;;11.60;4.32;;;;;;;;;;6260889;28;20041;-78
2023/05/27 05:06:24;;;;;;;13.02;5.15;;;;;;;;;;6244337;28;20143;-79
2023/05/27 05:09:25;;;;;;;;;;;;;;;;;;6270728;28;20045;-78
2023/05/27 05:12:27;;;;;;;13.55;4.20;;;;;;;;;;6240630;28;19924;-80
2023/05/27 05:15:30;;;;;;;12.25;4.97;;;;;;;;;;6253182;28;20041;-80
2023/05/27 05:18:32;;;;;;;12.35;4.18;;;;;;;;;;6271728;28;20037;-78
2023/05/27 05:21:36;;;;;;;15.18;4.88;;;;;;;;;;6268946;28;20065;-78
2023/05/27 05:24:39;;;;;;;10.50;4.82;;;;;;;;;;6253342;28;20091;-78
2023/05/27 05:27:41;;;;;;;11.52;4.30;;;;;;;;;;6255199;28;20053;-78
2023/05/27 05:30:43;;;;;;;14.88;4.72;;;;;;;;;;6270548;28;20049;-78
2023/05/27 05:33:49;;;;;;;10.48;4.30;;;;;;;;;;6253408;28;20041;-78
2023/05/27 05:36:51;;;;;;;12.85;4.75;;;;;;;;;;6258308;28;20057;-78
2023/05/27 05:39:56;;;;;;;10.15;4.57;;;;;;;;;;6258227;28;20045;-78
2023/05/27 05:42:59;;;;;;;9.80;5.15;;;;;;;;;;6270567;28;20108;-80
2023/05/27 05:46:01;;;;;;;11.60;4.38;;;;;;;;;;6265916;28;20045;-79
2023/05/27 05:49:05;;;;;;;7.65;4.60;;;;;;;;;;6258988;28;20051;-78
2023/05/27 05:52:17;;;;;;;10.68;4.43;;;;;;;;;;6269456;28;20048;-79
2023/05/27 05:55:21;;;;;;;16.38;4.45;;;;;;;;;;6259233;28;20049;-78
2023/05/27 05:58:23;;;;;;;12.02;4.53;;;;;;;;;;6253696;28;20045;-79
2023/05/27 06:01:26;;;;;;;11.02;4.55;;;;;;;;;;6256021;28;20064;-79
2023/05/27 06:04:28;;;;;;;16.05;4.50;;;;;;;;;;6261235;28;20080;-78
2023/05/27 06:07:31;;;;;;;12.13;3.83;;;;;;;;;;6273400;28;20064;-78
2023/05/27 06:10:40;;;;;;;15.48;4.75;;;;;;;;;;6259200;28;20075;-78
2023/05/27 06:13:41;;;;;;;14.02;3.80;;;;;;;;;;6250328;28;20124;-78
2023/05/27 06:16:47;;;;;;;9.15;4.60;;;;;;;;;;6256035;28;20045;-78
2023/05/27 06:19:51;;;;;;;17.10;5.10;;;;;;;;;;6253135;28;20063;-78
2023/05/27 06:22:53;;;;;;;15.10;4.10;;;;;;;;;;6254715;28;20057;-78
2023/05/27 06:26:14;;;;;;;12.07;4.10;;;;;;;;;;6258629;28;20036;-76
2023/05/27 06:29:22;;;;;;;12.13;4.15;;;;;;;;;;6254404;28;20213;-78
2023/05/27 06:32:24;;;;;;;8.00;3.83;;;;;;;;;;6252015;28;20048;-78
2023/05/27 06:35:26;;;;;;;10.65;3.85;;;;;;;;;;6257919;28;20041;-78
2023/05/27 06:38:28;;;;;;;10.45;4.15;;;;;;;;;;6274311;28;20048;-77
2023/05/27 06:41:31;;;;;;;12.38;3.85;;;;;;;;;;6259935;28;20110;-81
2023/05/27 06:44:51;;;;;;;12.55;3.55;;;;;;;;;;6257165;28;20718;-80
2023/05/27 06:47:59;;;;;;;14.10;3.70;;;;;;;;;;6256501;28;20052;-80
2023/05/27 06:51:01;;;;;;;11.85;3.80;;;;;;;;;;6254869;28;20049;-80
2023/05/27 06:54:03;;;;;;;9.60;3.65;;;;;;;;;;6241053;28;20486;-80
2023/05/27 06:57:11;;;;;;;8.90;3.35;;;;;;;;;;6248556;28;20045;-77
2023/05/27 07:00:37;;;;;;;11.73;3.75;;;;;;;;;;6249409;28;20133;-78
2023/05/27 07:04:18;;;;;;;11.90;3.75;;;;;;;;;;6200889;28;20092;-79
2023/05/27 07:07:27;;;;;;;14.32;3.83;;;;;;;;;;6218677;28;20508;-78
2023/05/27 07:10:28;;;;;;;12.75;3.90;;;;;;;;;;6267193;28;20041;-78
2023/05/27 07:13:30;;;;;;;11.65;3.83;;;;;;;;;;6265905;28;20427;-78
2023/05/27 07:16:32;;;;;;;11.07;3.50;;;;;;;;;;6251913;28;20040;-79
2023/05/27 07:19:35;;;;;;;12.00;4.47;;;;;;;;;;6256395;28;20172;-78
2023/05/27 07:22:40;;;;;;;8.18;3.33;;;;;;;;;;6268689;28;20065;-78
2023/05/27 07:25:43;;;;;;;9.18;3.75;;;;;;;;;;6243589;28;20042;-78
2023/05/27 07:28:46;;;;;;;8.77;3.17;;;;;;;;;;6252542;28;20057;-78
2023/05/27 07:31:57;;;;;;;12.43;3.80;;;;;;;;;;6256390;28;20495;-76
2023/05/27 07:35:02;;;;;;;11.88;4.03;;;;;;;;;;6236395;28;20049;-78
2023/05/27 07:38:04;;;;;;;8.97;3.50;;;;;;;;;;6255022;28;20717;-77
2023/05/27 07:41:06;;;;;;;13.75;3.42;;;;;;;;;;6268386;28;21012;-80
2023/05/27 07:44:08;;;;;;;9.85;3.50;;;;;;;;;;6263653;28;20034;-79
2023/05/27 07:47:10;;;;;;;12.05;3.70;;;;;;;;;;6249239;28;20044;-78
2023/05/27 07:50:12;;;;;;;12.63;3.65;;;;;;;;;;6247769;28;20388;-78
2023/05/27 07:53:17;;;;;;;10.02;3.60;;;;;;;;;;6248103;28;20048;-78
2023/05/27 07:56:19;;;;;;;10.02;3.22;;;;;;;;;;6256570;28;20045;-79
2023/05/27 07:59:21;;;;;;;13.63;3.53;;;;;;;;;;6238771;28;20136;-77
2023/05/27 08:02:23;;;;;;;8.88;3.00;;;;;;;;;;6253576;28;20073;-78
2023/05/27 08:05:25;;;;;;;13.55;3.53;;;;;;;;;;6245435;28;20037;-78
2023/05/27 08:08:36;;;;;;;10.98;3.83;;;;;;;;;;6252351;28;20045;-78
2023/05/27 08:11:56;;;;;;;17.23;4.70;;;;;;;;;;6248483;28;21367;-78
2023/05/27 08:15:19;;;;;;;25.10;5.40;;;;;;;;;;6245497;28;20053;-79
2023/05/27 08:18:37;;;;;;;13.80;4.00;;;;;;;;;;6275187;28;20041;-80
2023/05/27 08:21:42;;;;;;;7.43;3.45;;;;;;;;;;6259371;28;20418;-79
2023/05/27 08:25:04;;;;;;;9.02;3.53;;;;;;;;;;6254839;28;20078;-76
2023/05/27 08:28:34;;;;;;;12.13;4.05;;;;;;;;;;6241091;28;20044;-77
2023/05/27 08:32:03;;;;;;;11.15;3.72;;;;;;;;;;6235979;28;20127;-78
2023/05/27 08:35:04;;;;;;;14.23;3.60;;;;;;;;;;6249214;28;20161;-76
2023/05/27 08:38:07;;;;;;;9.45;3.50;;;;;;;;;;6251016;28;20451;-78
2023/05/27 08:41:13;;;;;;;11.38;3.80;;;;;;;;;;6266035;28;20516;-75
2023/05/27 08:44:16;;;;;;;11.23;3.42;;;;;;;;;;6257071;28;20041;-79
2023/05/27 08:47:30;;;;;;;15.13;3.83;;;;;;;;;;6255634;28;20067;-77
2023/05/27 08:50:32;;;;;;;8.77;3.33;;;;;;;;;;6257014;28;20509;-77
2023/05/27 08:53:35;;;;;;;10.90;3.38;;;;;;;;;;6275816;28;20040;-77
2023/05/27 08:56:39;;;;;;;9.57;3.60;;;;;;;;;;6261036;28;20052;-76
2023/05/27 08:59:44;;;;;;;8.50;2.97;;;;;;;;;;6268254;28;20056;-78
2023/05/27 09:02:47;;;;;;;9.68;3.28;;;;;;;;;;6256346;28;20045;-77
2023/05/27 09:05:49;;;;;;;9.68;3.60;;;;;;;;;;6239775;28;20045;-77
2023/05/27 09:08:50;;;;;;;6.88;3.25;;;;;;;;;;6247601;28;20090;-77
2023/05/27 09:11:53;;;;;;;9.02;3.05;;;;;;;;;;6256518;28;20179;-77
2023/05/27 09:14:56;;;;;;;7.97;3.30;;;;;;;;;;6254443;28;20128;-76
2023/05/27 09:17:57;;;;;;;5.85;3.00;;;;;;;;;;6251035;28;20037;-77
2023/05/27 09:21:04;;;;;;;7.80;3.05;;;;;;;;;;6254668;28;20064;-77
2023/05/27 09:24:06;;;;;;;6.63;3.20;;;;;;;;;;6252652;28;20037;-77
2023/05/27 09:27:09;;;;;;;10.00;3.10;;;;;;;;;;6250646;28;20037;-77
2023/05/27 09:30:12;;;;;;;7.65;2.83;;;;;;;;;;6245356;28;20413;-77
2023/05/27 09:33:13;;;;;;;;;;;;;;;;;;6256770;28;20063;-77
2023/05/27 09:36:21;;;;;;;9.38;3.22;;;;;;;;;;6253987;28;19928;-77
2023/05/27 09:39:22;;;;;;;10.05;3.28;;;;;;;;;;6251657;28;20045;-77
2023/05/27 09:42:24;;;;;;;8.00;3.53;;;;;;;;;;6250659;28;20522;-77
2023/05/27 09:45:27;;;;;;;7.70;2.58;;;;;;;;;;6252004;28;20041;-76
2023/05/27 09:48:31;;;;;;;7.30;2.83;;;;;;;;;;6252535;28;20048;-76
2023/05/27 09:51:33;;;;;;;5.82;2.53;;;;;;;;;;6253132;28;20045;-77
2023/05/27 09:54:36;;;;;;;6.78;2.80;;;;;;;;;;6251696;28;20127;-75
2023/05/27 09:57:38;;;;;;;7.80;2.78;;;;;;;;;;6254174;28;20545;-76
2023/05/27 10:00:41;;;;;;;;;;;;;;;;;;6252397;28;20053;-75
2023/05/27 10:03:44;;;;;;;5.43;2.50;;;;;;;;;;6250798;28;19925;-73
2023/05/27 10:06:46;;;;;;;9.60;3.15;;;;;;;;;;6256697;28;20060;-75
2023/05/27 10:09:48;;;;;;;6.72;3.10;;;;;;;;;;6251474;28;20049;-75
2023/05/27 10:12:51;;;;;;;6.53;3.00;;;;;;;;;;6260785;28;20080;-75
2023/05/27 10:15:53;;;;;;;10.18;3.15;;;;;;;;;;6263802;28;20518;-76
2023/05/27 10:18:56;;;;;;;5.95;2.95;;;;;;;;;;6253020;28;20136;-75
2023/05/27 10:22:07;;;;;;;6.97;2.60;;;;;;;;;;6250056;28;20048;-74
2023/05/27 10:25:16;;;;;;;11.55;3.10;;;;;;;;;;6253568;28;20048;-77
2023/05/27 10:28:27;;;;;;;10.75;3.20;;;;;;;;;;6255375;28;20033;-82
2023/05/27 10:31:30;;;;;;;11.55;3.22;;;;;;;;;;6253776;28;20049;-77
2023/05/27 10:34:37;;;;;;;10.27;2.90;;;;;;;;;;6253347;28;20037;-76
2023/05/27 10:37:41;;;;;;;5.35;2.85;;;;;;;;;;6249668;28;20045;-77
2023/05/27 10:40:50;;;;;;;6.38;2.85;;;;;;;;;;6249452;28;20056;-78
2023/05/27 10:43:57;;;;;;;9.27;2.83;;;;;;;;;;6271802;28;20037;-78
2023/05/27 10:47:13;;;;;;;8.85;3.15;;;;;;;;;;6252443;28;20037;-78
2023/05/27 10:50:15;;;;;;;9.68;3.40;;;;;;;;;;6258000;28;20037;-76
2023/05/27 10:53:18;;;;;;;8.68;3.55;;;;;;;;;;6237927;28;20053;-77
2023/05/27 10:56:21;;;;;;;7.00;3.05;;;;;;;;;;6249479;28;20041;-76
2023/05/27 10:59:23;;;;;;;9.98;3.15;;;;;;;;;;6257312;28;20052;-77
2023/05/27 11:02:31;;;;;;;10.40;3.42;;;;;;;;;;6261979;28;20044;-76
2023/05/27 11:05:33;;;;;;;6.05;2.60;;;;;;;;;;6250833;28;20068;-79
2023/05/27 11:08:35;;;;;;;7.83;3.37;;;;;;;;;;6253350;28;20041;-77
2023/05/27 11:11:37;;;;;;;8.75;3.53;;;;;;;;;;6259685;28;20498;-77
2023/05/27 11:14:38;;;;;;;5.50;2.70;;;;;;;;;;6251378;28;20615;-77
2023/05/27 11:17:40;;;;;;;7.65;2.90;;;;;;;;;;6252736;28;20063;-78
2023/05/27 11:20:42;;;;;;;9.17;2.60;;;;;;;;;;6251788;28;20056;-78
2023/05/27 11:23:46;;;;;;;5.65;2.33;;;;;;;;;;6251258;28;20459;-77
2023/05/27 11:26:48;;;;;;;7.50;2.53;;;;;;;;;;6250051;28;20041;-77
2023/05/27 11:29:52;;;;;;;6.60;3.20;;;;;;;;;;6254148;28;20045;-77
2023/05/27 11:33:03;;;;;;;5.45;2.88;;;;;;;;;;6246558;28;20452;-78
2023/05/27 11:36:06;;;;;;;8.15;2.97;;;;;;;;;;6255198;28;20048;-77
2023/05/27 11:39:18;;;;;;;6.78;2.78;;;;;;;;;;6265690;28;20578;-76
2023/05/27 11:42:23;;;;;;;9.35;2.80;;;;;;;;;;6253204;28;20048;-76
2023/05/27 11:45:26;;;;;;;8.25;2.85;;;;;;;;;;6250053;28;20082;-77
2023/05/27 11:48:28;;;;;;;6.05;2.92;;;;;;;;;;6254094;28;20045;-78
2023/05/27 11:51:30;;;;;;;7.97;2.90;;;;;;;;;;6250518;28;20095;-77
2023/05/27 11:54:31;;;;;;;6.93;3.03;;;;;;;;;;6249971;28;20042;-77
2023/05/27 11:57:36;;;;;;;4.47;2.78;;;;;;;;;;6246247;28;20534;-76
2023/05/27 12:00:38;;;;;;;8.45;2.80;;;;;;;;;;6245066;28;20088;-77
2023/05/27 12:03:41;;;;;;;6.03;2.80;;;;;;;;;;6256525;28;20537;-77
2023/05/27 12:06:44;;;;;;;7.43;3.10;;;;;;;;;;6251840;28;20471;-78
2023/05/27 12:09:48;;;;;;;7.18;2.83;;;;;;;;;;6252414;28;20048;-77
2023/05/27 12:12:50;;;;;;;6.53;2.87;;;;;;;;;;6213275;28;1132747;-77
2023/05/27 12:15:52;;;;;;;4.83;2.60;;;;;;;;;;6252082;28;20525;-77
2023/05/27 12:18:54;;;;;;;6.28;2.70;;;;;;;;;;6253200;28;20049;-77
2023/05/27 12:21:55;;;;;;;7.13;3.03;;;;;;;;;;6255740;28;20041;-77
2023/05/27 12:24:57;;;;;;;8.77;2.92;;;;;;;;;;6252882;28;20099;-76
2023/05/27 12:27:59;;;;;;;6.80;3.03;;;;;;;;;;6250748;28;20049;-76
2023/05/27 12:31:01;;;;;;;5.97;2.72;;;;;;;;;;6258993;28;20029;-73
2023/05/27 12:34:02;;;;;;;5.63;2.65;;;;;;;;;;6273727;28;20045;-73
2023/05/27 12:37:04;;;;;;;7.33;3.23;;;;;;;;;;6272120;28;20079;-72
2023/05/27 12:40:09;;;;;;;6.65;3.00;;;;;;;;;;6271503;28;20063;-72
2023/05/27 12:43:10;;;;;;;6.10;2.58;;;;;;;;;;6265447;28;20037;-75
2023/05/27 12:46:12;;;;;;;7.65;2.67;;;;;;;;;;6263790;28;20460;-77
2023/05/27 12:49:14;;;;;;;7.03;3.05;;;;;;;;;;6267374;28;20044;-75
2023/05/27 12:52:16;;;;;;;6.00;2.80;;;;;;;;;;6270157;28;20068;-75
2023/05/27 12:55:19;;;;;;;6.27;2.80;;;;;;;;;;6269918;28;20514;-75
2023/05/27 12:58:20;;;;;;;6.25;2.72;;;;;;;;;;6250478;28;20120;-75
2023/05/27 13:01:23;;;;;;;8.43;2.75;;;;;;;;;;6254985;28;20048;-75
2023/05/27 13:04:24;;;;;;;;;;;;;;;;;;6245964;28;20045;-75
2023/05/27 13:07:27;;;;;;;6.38;3.30;;;;;;;;;;6242823;28;19927;-75
2023/05/27 13:10:29;;;;;;;4.70;2.70;;;;;;;;;;6242766;28;20067;-75
2023/05/27 13:13:31;;;;;;;7.25;3.03;;;;;;;;;;6242268;28;20045;-75
2023/05/27 13:16:33;;;;;;;4.07;2.70;;;;;;;;;;6244261;28;20041;-75
2023/05/27 13:19:34;;;;;;;3.72;2.47;;;;;;;;;;6240974;28;20421;-76
2023/05/27 13:22:36;;;;;;;6.55;2.92;;;;;;;;;;6240316;28;20656;-75
2023/05/27 13:25:39;;;;;;;5.97;2.88;;;;;;;;;;6241483;28;20041;-75
2023/05/27 13:28:41;;;;;;;5.00;2.85;;;;;;;;;;6245200;28;20056;-73
2023/05/27 13:31:45;;;;;;;5.80;2.88;;;;;;;;;;6249524;28;20057;-73
2023/05/27 13:34:47;;;;;;;6.72;2.60;;;;;;;;;;6247714;28;20045;-74
2023/05/27 13:37:49;;;;;;;6.20;3.00;;;;;;;;;;6242952;28;20423;-74
2023/05/27 13:40:51;;;;;;;6.55;3.25;;;;;;;;;;6247015;28;20064;-73
2023/05/27 13:43:54;;;;;;;5.88;3.20;;;;;;;;;;6243990;28;20041;-73
2023/05/27 13:46:56;;;;;;;8.80;3.40;;;;;;;;;;6246168;28;20411;-74
2023/05/27 13:49:58;;;;;;;6.53;2.78;;;;;;;;;;6247161;28;20125;-72
2023/05/27 13:53:00;;;;;;;8.13;3.03;;;;;;;;;;6244167;28;20041;-75
2023/05/27 13:56:01;;;;;;;6.13;3.10;;;;;;;;;;6257884;28;20045;-74
2023/05/27 13:59:04;;;;;;;6.90;3.00;;;;;;;;;;6252613;28;21067;-75
2023/05/27 14:02:07;;;;;;;5.40;2.65;;;;;;;;;;6250780;28;20048;-77
2023/05/27 14:05:10;;;;;;;7.13;2.55;;;;;;;;;;6270787;28;20045;-75
2023/05/27 14:08:12;;;;;;;6.55;2.90;;;;;;;;;;6250280;28;20045;-75
2023/05/27 14:11:14;;;;;;;9.95;2.83;;;;;;;;;;6249716;28;20106;-73
2023/05/27 14:14:16;;;;;;;6.78;3.03;;;;;;;;;;6229396;28;20057;-77
2023/05/27 14:17:18;;;;;;;5.65;3.10;;;;;;;;;;6251594;28;20041;-75
2023/05/27 14:20:20;;;;;;;6.55;3.03;;;;;;;;;;6251560;28;20072;-76
2023/05/27 14:23:22;;;;;;;5.07;2.63;;;;;;;;;;6247280;28;20055;-76
2023/05/27 14:26:24;;;;;;;8.60;3.00;;;;;;;;;;6252024;28;20048;-77
2023/05/27 14:29:26;;;;;;;7.53;3.03;;;;;;;;;;6251575;28;20447;-77
2023/05/27 14:32:27;;;;;;;5.37;2.77;;;;;;;;;;6262129;28;20114;-77
2023/05/27 14:35:29;;;;;;;7.28;2.47;;;;;;;;;;6254717;28;20140;-77
2023/05/27 14:38:31;;;;;;;4.65;2.80;;;;;;;;;;6258440;28;20072;-77
2023/05/27 14:41:32;;;;;;;4.55;2.30;;;;;;;;;;6253747;28;20056;-76
2023/05/27 14:44:38;;;;;;;5.63;2.60;;;;;;;;;;6250384;28;20044;-75
2023/05/27 14:47:39;;;;;;;6.05;2.85;;;;;;;;;;6256244;28;20048;-77
2023/05/27 14:50:41;;;;;;;5.53;2.75;;;;;;;;;;6259999;28;20056;-74
2023/05/27 14:53:43;;;;;;;4.32;2.38;;;;;;;;;;6267508;28;20041;-76
2023/05/27 14:56:46;;;;;;;6.05;2.85;;;;;;;;;;6255818;28;20045;-75
2023/05/27 14:59:48;;;;;;;5.85;2.72;;;;;;;;;;6254925;28;20044;-75
2023/05/27 15:02:50;;;;;;;7.82;3.00;;;;;;;;;;6259236;28;20075;-75
2023/05/27 15:05:54;;;;;;;5.50;2.70;;;;;;;;;;6252774;28;20057;-75
2023/05/27 15:08:56;;;;;;;4.60;2.85;;;;;;;;;;6247397;28;20041;-75
2023/05/27 15:11:59;;;;;;;3.65;2.75;;;;;;;;;;6255602;28;20049;-77
2023/05/27 15:15:01;;;;;;;4.38;2.92;;;;;;;;;;6253935;28;20052;-74
2023/05/27 15:18:05;;;;;;;4.10;2.45;;;;;;;;;;6255930;28;20043;-77
2023/05/27 15:21:07;;;;;;;5.15;3.00;;;;;;;;;;6238647;28;20052;-76
2023/05/27 15:24:08;;;;;;;6.63;3.38;;;;;;;;;;6264705;28;20052;-76
2023/05/27 15:27:10;;;;;;;4.80;2.97;;;;;;;;;;6262858;28;20056;-77
2023/05/27 15:30:12;;;;;;;6.00;3.03;;;;;;;;;;6247864;28;20452;-77
2023/05/27 15:33:14;;;;;;;5.75;3.00;;;;;;;;;;6253844;28;20049;-76
2023/05/27 15:36:16;;;;;;;6.00;3.00;;;;;;;;;;6258393;28;20056;-78
2023/05/27 15:39:17;;;;;;;4.17;3.03;;;;;;;;;;6250972;28;20111;-77
2023/05/27 15:42:19;;;;;;;6.13;3.03;;;;;;;;;;6257201;28;20641;-77
2023/05/27 15:45:21;;;;;;;6.67;3.23;;;;;;;;;;6255474;28;21181;-77
2023/05/27 15:48:22;;;;;;;5.30;3.17;;;;;;;;;;6258366;28;20037;-76
2023/05/27 15:51:24;;;;;;;7.27;3.97;;;;;;;;;;6256799;28;20136;-76
2023/05/27 15:54:26;;;;;;;5.80;3.20;;;;;;;;;;6254367;28;20049;-75
2023/05/27 15:57:27;;;;;;;4.87;3.47;;;;;;;;;;6252711;28;20049;-77
2023/05/27 16:00:29;;;;;;;5.18;3.40;;;;;;;;;;6265187;28;20055;-77
2023/05/27 16:03:31;;;;;;;6.22;3.28;;;;;;;;;;6261934;28;20037;-77
2023/05/27 16:06:33;;;;;;;3.95;2.90;;;;;;;;;;6263237;28;20145;-77
2023/05/27 16:09:36;;;;;;;6.15;3.42;;;;;;;;;;6257108;28;20483;-77
2023/05/27 16:12:38;;;;;;;6.60;3.45;;;;;;;;;;6254027;28;20052;-76
2023/05/27 16:15:40;;;;;;;6.82;3.42;;;;;;;;;;6252598;28;20045;-77
2023/05/27 16:18:41;;;;;;;4.20;3.47;;;;;;;;;;6248444;28;20049;-76
2023/05/27 16:21:46;;;;;;;7.67;3.63;;;;;;;;;;6247761;28;20063;-75
2023/05/27 16:24:47;;;;;;;6.90;3.50;;;;;;;;;;6248702;28;20396;-75
2023/05/27 16:27:49;;;;;;;11.13;3.53;;;;;;;;;;6249243;28;20128;-76
2023/05/27 16:30:51;;;;;;;6.45;3.47;;;;;;;;;;6251620;28;20045;-76
2023/05/27 16:33:53;;;;;;;7.03;3.53;;;;;;;;;;6247171;28;20558;-77
2023/05/27 16:36:55;;;;;;;7.13;3.67;;;;;;;;;;6248237;28;20400;-77
2023/05/27 16:39:56;;;;;;;6.30;3.55;;;;;;;;;;6246740;28;20095;-75
2023/05/27 16:42:58;;;;;;;7.40;3.40;;;;;;;;;;6253310;28;20059;-75
2023/05/27 16:46:00;;;;;;;6.43;3.40;;;;;;;;;;6250146;28;20060;-77
2023/05/27 16:49:01;;;;;;;5.57;3.50;;;;;;;;;;6249244;28;20049;-77
2023/05/27 16:52:03;;;;;;;5.18;3.30;;;;;;;;;;6267752;28;20459;-76
2023/05/27 16:55:06;;;;;;;6.03;3.80;;;;;;;;;;6250487;28;20052;-76
2023/05/27 16:58:08;;;;;;;5.82;3.38;;;;;;;;;;6247306;28;20048;-77
2023/05/27 17:01:10;;;;;;;4.70;3.47;;;;;;;;;;6244531;28;20463;-76
2023/05/27 17:04:12;;;;;;;7.78;3.70;;;;;;;;;;6252018;28;20041;-76
2023/05/27 17:07:14;;;;;;;6.78;3.58;;;;;;;;;;6257830;28;20049;-76
2023/05/27 17:10:16;;;;;;;4.75;3.30;;;;;;;;;;6254193;28;20048;-76
2023/05/27 17:13:18;;;;;;;4.80;3.45;;;;;;;;;;6255454;28;20041;-74
2023/05/27 17:16:20;;;;;;;8.20;3.50;;;;;;;;;;6237243;28;20045;-76
2023/05/27 17:19:22;;;;;;;8.75;3.63;;;;;;;;;;6250767;28;20105;-76
2023/05/27 17:22:24;;;;;;;6.05;3.47;;;;;;;;;;6255666;28;20041;-75
2023/05/27 17:25:26;;;;;;;8.67;3.23;;;;;;;;;;6254317;28;20048;-77
2023/05/27 17:28:28;;;;;;;5.65;3.33;;;;;;;;;;6250703;28;20996;-76
2023/05/27 17:31:29;;;;;;;7.10;3.22;;;;;;;;;;6251895;28;20061;-77
2023/05/27 17:34:31;;;;;;;6.07;3.42;;;;;;;;;;6253967;28;20037;-76
2023/05/27 17:37:33;;;;;;;8.02;3.40;;;;;;;;;;6255525;28;20052;-76
2023/05/27 17:40:35;;;;;;;7.03;2.97;;;;;;;;;;6253005;28;20041;-74
2023/05/27 17:43:36;;;;;;;6.10;3.30;;;;;;;;;;6255429;28;20198;-76
2023/05/27 17:46:38;;;;;;;7.17;3.67;;;;;;;;;;6254963;28;20048;-76
2023/05/27 17:49:40;;;;;;;6.40;3.30;;;;;;;;;;6253916;28;20052;-78
2023/05/27 17:52:42;;;;;;;7.68;3.60;;;;;;;;;;6246808;28;20052;-75
2023/05/27 17:55:43;;;;;;;9.25;3.75;;;;;;;;;;6251568;28;20051;-74
2023/05/27 17:58:45;;;;;;;5.50;3.42;;;;;;;;;;6249928;28;20049;-76
2023/05/27 18:01:47;;;;;;;5.90;3.15;;;;;;;;;;6253443;28;20050;-77
2023/05/27 18:04:49;;;;;;;8.00;3.50;;;;;;;;;;6257810;28;20500;-76
2023/05/27 18:07:51;;;;;;;8.98;3.45;;;;;;;;;;6252637;28;20059;-75
2023/05/27 18:10:53;;;;;;;5.97;3.28;;;;;;;;;;6254091;28;20041;-79
2023/05/27 18:13:55;;;;;;;7.20;3.30;;;;;;;;;;6252264;28;20049;-78
2023/05/27 18:16:56;;;;;;;7.55;3.35;;;;;;;;;;6250624;28;20056;-80
2023/05/27 18:19:58;;;;;;;7.00;3.28;;;;;;;;;;6254920;28;20068;-81